Weather at Rawlinna Station Airport

Public forecast

Using degrees Celsius for public forecast. Weather courtesy of forecast.io.

Closest aviation weather report (METAR) to Rawlinna Station Airport

Closest report is Forrest Airport, 150.7 nm (279.2 km) E. Retrieved 2022/06/27 10:30 UTC (30 minutes ago):

YFRT 271030Z AUTO 03006KT 9999 // NCD 11/01 Q1027 RF000/0000

Closest aviation forecast (TAF) to Rawlinna Station Airport

Closest forecast is Forrest Airport, 150.7 nm (279.2 km) E. Retrieved 2022/06/27 08:00 UTC (3 hours ago):

TAF YFRT 270700Z 2708/2720 01008KT CAVOK